Back to Top
Banner_Quays_at_Mast_2020.jpeg
Banner_VERITY.jpeg
Banner_P42_Kinsale_2004.jpeg
Superyacht_SCOUT.jpg
Kinsale_Trawlers_Banner.jpeg
previous arrow
next arrow

Port Arrivals Report (AIS)

This report is generated from collected AIS (Automated Identification System) signals from vessels entering port.

IMO MMSI Class Flag Vessel Name Vessel type Nav Status Destination Call Sign Latitude Longitude Speed (kts) Course (T) Draught (m) LOA (m) Beam (m) Timestamp
0 235105495 B GB IMPETUOUS Pleasure craft - 2HPF2 51.6878 -8.49967 7.1 344.8 0 11 3 2024-06-03 14:07:59
0 250014114 B IE JAVA BLUE SAILING. - EIA2579 51.6878 -8.49773 7.8 349.4 0 14 4 2024-06-03 13:52:39
0 227068710 B FR - - 51.6873 -8.49872 6 359.6 0 0 0 2024-06-03 13:52:27
0 250103750 B IE HARPY DREDGING / UNDERWATER Ops. - EI7410 51.6909 -8.50235 9.9 349 0 13 4 2024-06-03 13:04:29
9297462 250106800 A IE OILEAN AN OIR FISHING. - EI7573 51.6883 -8.49804 5.6 356.9 0 27 8 2024-06-03 12:24:18
0 235065573 B GB - - 51.6874 -8.49918 4.7 350.1 0 0 0 2024-06-02 18:19:58
0 250006505 B IE ALPACA SAILING. - EIZF2 51.6881 -8.50089 2.7 0.6 0 12 4 2024-06-02 17:51:18
0 250006505 B IE ALPACA SAILING. - EIZF2 51.6874 -8.50001 2.3 353.3 0 12 4 2024-06-02 17:42:48
0 250103750 B IE HARPY DREDGING / UNDERWATER Ops. - EI7410 51.6891 -8.5003 8.6 352.6 0 13 4 2024-06-02 17:27:41
0 250004156 A IE F/V BREIZH ARVOR II FISHING. - KINSALE EIRX3 51.7017 -8.51735 0 174.9 3.2 23 6 2024-06-02 17:04:07
0 235059872 B GB KISMET SAILING. - 2AIG3 51.6876 -8.49888 4.7 354.6 0 11 3 2024-06-02 17:01:47
0 250013862 B IE VIOLA SAILING. - 2EGP9 51.688 -8.49874 4.8 351.3 0 14 4 2024-06-02 16:43:35
0 250005259 B IE ZEN Pleasure craft - EIUH4 51.6897 -8.49942 12 353.7 0 9 3 2024-06-02 16:00:24
0 250003474 B IE SAILING. - EI-QH-7 51.6883 -8.50054 4.6 356.5 0 0 0 2024-06-02 15:48:08
0 250005095 B IE GGENESIS SAILING. - EITK2 51.6877 -8.50058 5.1 349.2 0 11 4 2024-06-02 15:06:33
0 250006589 B IE DAY BREAK Pleasure craft - EI-ZN-8 51.6887 -8.50194 6.1 322.1 0 12 4 2024-06-02 14:45:26
0 250001311 B IE ZURI SAILING. - EI-EB-7 51.6871 -8.49797 3.1 350.5 0 11 4 2024-06-02 14:21:52
0 227381780 B FR CAOL ILA SAILING. - 51.688 -8.49866 6.1 350.6 0 0 0 2024-06-02 14:08:22
0 250006715 B IE TOWARD PADUA SAILING. - EIZZ8 51.6875 -8.4994 5.2 354 0 14 4 2024-06-02 13:49:46
0 250103750 B IE HARPY DREDGING / UNDERWATER Ops. - EI7410 51.6873 -8.50162 8.7 343.6 0 13 4 2024-06-02 12:56:54